Time;durP1;ratioP1;P1;durP2;ratioP2;P2;SDS_P1;SDS_P2;PMS_P1;PMS_P2;Temp;Humidity;BMP_temperature;BMP_pressure;BME280_temperature;BME280_humidity;BME280_pressure;Samples;Min_cycle;Max_cycle;Signal;HPM_P1;HPM_P2
2021/06/29 00:00:46;;;;;;;;;2.50;2.00;;;;;18.16;59.33;100953.63;5055225;28;45382;-71
2021/06/29 00:03:11;;;;;;;;;2.00;2.00;;;;;18.14;59.58;100954.59;5055103;28;45592;-70
2021/06/29 00:05:38;;;;;;;;;2.00;2.00;;;;;18.15;59.30;100948.41;5053976;28;45506;-70
2021/06/29 00:08:06;;;;;;;;;1.00;1.00;;;;;18.14;59.69;100941.38;5054639;28;45560;-70
2021/06/29 00:10:34;;;;;;;;;0.25;0.00;;;;;18.14;59.80;100930.75;5053974;28;45449;-70
2021/06/29 00:12:59;;;;;;;;;2.00;1.50;;;;;18.12;59.99;100938.81;5039100;28;45361;-70
2021/06/29 00:15:27;;;;;;;;;2.50;1.50;;;;;18.12;60.20;100945.91;5055259;28;46440;-70
2021/06/29 00:17:53;;;;;;;;;3.00;2.00;;;;;18.11;60.25;100952.13;5055111;28;45513;-70
2021/06/29 00:20:18;;;;;;;;;1.00;1.00;;;;;18.09;59.89;100946.91;5053870;28;45360;-70
2021/06/29 00:22:44;;;;;;;;;1.00;1.00;;;;;18.12;59.81;100951.19;5053271;28;45481;-70
2021/06/29 00:25:12;;;;;;;;;1.75;1.75;;;;;18.12;60.05;100951.19;5054285;28;46746;-70
2021/06/29 00:27:39;;;;;;;;;1.75;0.00;;;;;18.14;59.87;100950.19;5054663;28;45370;-70
2021/06/29 00:30:06;;;;;;;;;3.00;2.00;;;;;18.18;60.14;100953.53;5054850;28;45402;-70
2021/06/29 00:32:31;;;;;;;;;2.75;1.00;;;;;18.20;59.99;100952.53;5054377;28;45501;-70
2021/06/29 00:34:57;;;;;;;;;1.25;1.00;;;;;18.22;59.90;100955.13;5054326;28;46139;-70
2021/06/29 00:37:22;;;;;;;;;1.00;1.00;;;;;18.20;60.39;100943.72;5054464;28;45454;-70
2021/06/29 00:39:48;;;;;;;;;1.75;1.00;;;;;18.18;60.26;100942.94;5054243;28;45350;-70
2021/06/29 00:42:13;;;;;;;;;1.75;1.25;;;;;18.18;60.09;100940.28;5055105;28;45329;-70
2021/06/29 00:44:38;;;;;;;;;1.00;1.00;;;;;18.17;60.72;100938.59;5054195;28;46174;-70
2021/06/29 00:47:09;;;;;;;;;1.00;1.00;;;;;18.15;60.44;100929.84;5054482;28;45442;-70
2021/06/29 00:49:35;;;;;;;;;1.00;1.00;;;;;18.13;60.79;100931.72;5054722;28;45419;-70
2021/06/29 00:52:00;;;;;;;;;1.50;1.50;;;;;18.12;61.08;100928.22;5054568;28;45354;-70
2021/06/29 00:54:26;;;;;;;;;0.00;0.00;;;;;18.13;61.01;100921.97;5054094;28;45507;-70
2021/06/29 00:56:51;;;;;;;;;2.00;2.00;;;;;18.13;60.96;100927.25;5054154;28;45300;-70
2021/06/29 00:59:16;;;;;;;;;1.00;1.00;;;;;18.14;61.42;100922.81;5054310;28;45471;-70
2021/06/29 01:01:42;;;;;;;;;1.00;1.00;;;;;18.13;61.44;100924.63;5054374;28;45553;-70
2021/06/29 01:04:07;;;;;;;;;2.00;1.00;;;;;18.11;61.96;100928.28;5054131;28;46434;-70
2021/06/29 01:06:33;;;;;;;;;3.50;2.00;;;;;18.08;61.44;100933.72;5054396;28;45397;-70
2021/06/29 01:09:01;;;;;;;;;3.00;1.00;;;;;18.07;61.64;100924.94;5053796;28;45406;-70
2021/06/29 01:11:26;;;;;;;;;1.25;1.25;;;;;18.06;61.60;100917.91;5053972;28;45446;-70
2021/06/29 01:13:52;;;;;;;;;2.00;1.50;;;;;18.08;61.53;100912.53;5053938;28;46432;-70
2021/06/29 01:16:17;;;;;;;;;2.00;2.00;;;;;18.07;61.62;100909.03;5054313;28;45469;-70
2021/06/29 01:18:45;;;;;;;;;3.00;3.00;;;;;18.08;61.94;100907.25;5053165;28;45352;-70
2021/06/29 01:21:18;;;;;;;;;2.50;1.50;;;;;18.07;61.81;100903.75;5052765;28;45462;-70
2021/06/29 01:23:52;;;;;;;;;3.00;2.00;;;;;18.07;61.61;100900.22;5053466;28;47289;-70
2021/06/29 01:26:41;;;;;;;;;2.25;2.25;;;;;18.06;61.65;100904.66;5053689;28;45299;-70
2021/06/29 01:29:07;;;;;;;;;5.00;1.00;;;;;18.07;61.60;100903.75;5054069;28;45590;-70
2021/06/29 01:31:34;;;;;;;;;2.00;2.00;;;;;18.08;61.50;100907.25;5054742;28;45560;-71
2021/06/29 01:34:00;;;;;;;;;2.00;2.00;;;;;18.08;61.86;100910.75;5041624;28;45421;-70
2021/06/29 01:36:34;;;;;;;;;1.50;1.00;;;;;18.09;62.04;100898.34;5057855;28;45445;-70
2021/06/29 01:39:03;;;;;;;;;2.75;2.75;;;;;18.08;61.73;100902.78;5057601;28;45522;-71
2021/06/29 01:41:28;;;;;;;;;2.00;2.00;;;;;18.09;61.96;100906.28;5057256;28;45579;-70
2021/06/29 01:44:32;;;;;;;;;2.50;2.50;;;;;18.09;62.41;100908.94;5057161;28;46928;-70
2021/06/29 01:46:50;;;;;;;;;2.00;2.00;;;;;18.07;62.28;100902.84;5057988;28;45338;-71
2021/06/29 01:49:16;;;;;;;;;1.25;1.25;;;;;18.07;62.27;100906.38;5057293;28;45454;-71
2021/06/29 01:51:41;;;;;;;;;2.50;2.00;;;;;18.10;62.44;100903.59;5056985;28;45391;-70
2021/06/29 01:54:07;;;;;;;;;2.00;2.00;;;;;18.17;62.18;100904.16;5057376;28;45524;-70
2021/06/29 01:56:36;;;;;;;;;2.25;2.25;;;;;18.21;62.26;100903.91;5055631;28;45471;-71
2021/06/29 01:59:09;;;;;;;;;1.50;1.50;;;;;18.28;62.08;100893.00;5057122;28;45203;-71
2021/06/29 02:01:37;;;;;;;;;1.75;1.00;;;;;18.33;61.89;100893.63;5056837;28;45541;-71
2021/06/29 02:04:02;;;;;;;;;2.00;2.00;;;;;18.36;61.76;100897.00;5057050;28;45382;-71
2021/06/29 02:06:28;;;;;;;;;2.50;1.75;;;;;18.38;62.05;100891.63;5057415;28;45372;-70
2021/06/29 02:08:53;;;;;;;;;1.00;1.00;;;;;18.40;61.54;100885.31;5057069;28;45299;-71
2021/06/29 02:11:18;;;;;;;;;2.00;2.00;;;;;18.43;61.45;100884.28;5055453;28;45514;-70
2021/06/29 02:13:44;;;;;;;;;2.00;2.00;;;;;18.48;61.52;100884.91;5056459;28;46948;-70
2021/06/29 02:16:09;;;;;;;;;2.25;2.25;;;;;18.51;61.70;100882.09;5056941;28;45374;-69
2021/06/29 02:18:34;;;;;;;;;2.00;2.00;;;;;18.50;61.60;100877.75;5057207;28;45415;-70
2021/06/29 02:21:00;;;;;;;;;4.75;3.75;;;;;18.49;61.76;100875.16;5056457;28;45632;-70
2021/06/29 02:23:25;;;;;;;;;2.75;2.75;;;;;18.45;61.47;100877.97;5056287;28;46126;-70
2021/06/29 02:25:51;;;;;;;;;3.00;3.00;;;;;18.44;61.29;100881.53;5056323;28;45463;-70
2021/06/29 02:28:17;;;;;;;;;2.75;2.75;;;;;18.44;61.28;100880.69;5056495;28;45518;-69
2021/06/29 02:30:43;;;;;;;;;3.00;3.00;;;;;18.41;61.52;100873.75;5056243;28;45435;-69
2021/06/29 02:33:09;;;;;;;;;1.50;1.50;;;;;18.38;61.47;100878.38;5056557;28;45460;-70
2021/06/29 02:35:36;;;;;;;;;3.00;2.00;;;;;18.34;61.41;100880.31;5055940;28;45521;-70
2021/06/29 02:38:02;;;;;;;;;2.00;2.00;;;;;18.34;61.42;100868.84;5056480;28;45461;-70
2021/06/29 02:40:28;;;;;;;;;3.50;3.50;;;;;18.33;61.38;100872.41;5056596;28;45470;-70
2021/06/29 02:42:53;;;;;;;;;4.00;4.00;;;;;18.34;61.21;100869.69;5055176;28;45538;-70
2021/06/29 02:45:20;;;;;;;;;5.00;3.00;;;;;18.34;61.43;100876.81;5056940;28;45415;-69
2021/06/29 02:47:47;;;;;;;;;2.00;2.00;;;;;18.31;61.46;100871.66;5056268;28;45564;-69
2021/06/29 02:50:14;;;;;;;;;2.50;2.50;;;;;18.28;61.35;100877.09;5055779;28;45364;-70
2021/06/29 02:52:39;;;;;;;;;3.00;3.00;;;;;18.24;61.60;100876.41;5056082;28;46358;-69
2021/06/29 02:55:08;;;;;;;;;3.00;3.00;;;;;18.19;61.55;100884.59;5055799;28;45559;-70
2021/06/29 02:57:34;;;;;;;;;5.00;2.00;;;;;18.14;61.64;100869.81;5056666;28;45456;-70
2021/06/29 03:00:00;;;;;;;;;2.00;2.00;;;;;18.12;61.64;100869.06;5056548;28;45237;-69
2021/06/29 03:02:25;;;;;;;;;2.25;2.25;;;;;18.10;62.13;100866.50;5054371;28;47011;-70
2021/06/29 03:04:51;;;;;;;;;2.00;2.00;;;;;18.06;62.18;100864.91;5055733;28;45512;-69
2021/06/29 03:07:17;;;;;;;;;3.00;2.75;;;;;18.01;62.19;100854.53;5056216;28;47157;-70
2021/06/29 03:09:42;;;;;;;;;2.00;2.00;;;;;17.98;62.26;100849.41;5056072;28;45430;-69
2021/06/29 03:12:09;;;;;;;;;2.50;2.00;;;;;17.96;62.38;100839.81;5056089;28;46279;-70
2021/06/29 03:14:36;;;;;;;;;3.50;2.75;;;;;17.94;62.29;100839.88;5055442;28;45427;-70
2021/06/29 03:17:05;;;;;;;;;3.50;3.00;;;;;17.95;62.47;100843.41;5055454;28;45445;-70
2021/06/29 03:19:31;;;;;;;;;1.25;1.25;;;;;17.94;62.71;100841.69;5055039;28;45394;-70
2021/06/29 03:21:56;;;;;;;;;3.25;2.75;;;;;17.93;62.33;100834.69;5055390;28;46470;-70
2021/06/29 03:24:22;;;;;;;;;2.00;2.00;;;;;17.91;62.59;100842.69;5056303;28;45394;-70
2021/06/29 03:26:47;;;;;;;;;3.00;2.00;;;;;17.89;62.84;100846.34;5055572;28;45525;-70
2021/06/29 03:29:12;;;;;;;;;2.00;2.00;;;;;17.88;63.00;100840.22;5055040;28;45461;-69
2021/06/29 03:31:38;;;;;;;;;8.50;4.50;;;;;17.89;63.11;100844.56;5055013;28;46036;-70
2021/06/29 03:34:03;;;;;;;;;2.00;2.00;;;;;17.90;62.85;100833.06;5055037;28;45558;-69
2021/06/29 03:36:30;;;;;;;;;3.50;3.50;;;;;17.90;62.95;100832.16;5056456;28;45521;-70
2021/06/29 03:38:55;;;;;;;;;2.25;2.25;;;;;17.91;62.78;100841.84;5055616;28;45603;-70
2021/06/29 03:41:20;;;;;;;;;2.00;2.00;;;;;17.93;62.64;100834.69;5054737;28;45551;-68
2021/06/29 03:43:46;;;;;;;;;4.25;3.00;;;;;17.95;62.53;100838.13;5054845;28;45506;-69
2021/06/29 03:46:11;;;;;;;;;4.25;3.00;;;;;17.97;62.52;100841.53;5055035;28;45387;-70
2021/06/29 03:48:36;;;;;;;;;2.75;2.25;;;;;17.97;62.50;100842.41;5055382;28;45248;-70
2021/06/29 03:51:02;;;;;;;;;3.50;3.50;;;;;17.96;62.21;100843.31;5055157;28;46382;-70
2021/06/29 03:53:28;;;;;;;;;4.00;4.00;;;;;17.96;62.30;100835.38;5054635;28;45486;-69
2021/06/29 03:55:53;;;;;;;;;2.00;2.00;;;;;17.98;62.04;100835.31;5054744;28;45232;-69
2021/06/29 03:58:18;;;;;;;;;2.00;2.00;;;;;17.97;61.91;100838.88;5054714;28;45441;-70
2021/06/29 04:00:44;;;;;;;;;4.00;3.00;;;;;17.98;61.93;100838.81;5054589;28;46463;-70
2021/06/29 04:03:10;;;;;;;;;4.00;4.00;;;;;17.99;61.93;100837.88;5054703;28;45347;-69
2021/06/29 04:05:35;;;;;;;;;2.25;2.25;;;;;18.02;61.86;100831.59;5054346;28;45491;-69
2021/06/29 04:08:01;;;;;;;;;2.25;2.25;;;;;18.01;61.69;100841.31;5054258;28;45471;-70
2021/06/29 04:10:26;;;;;;;;;3.00;2.00;;;;;18.03;61.64;100846.53;5053758;28;45372;-69
2021/06/29 04:12:51;;;;;;;;;4.25;3.25;;;;;18.04;61.81;100842.94;5053723;28;45383;-69
2021/06/29 04:15:17;;;;;;;;;2.00;2.00;;;;;18.08;61.64;100851.59;5054282;28;45403;-70
2021/06/29 04:17:42;;;;;;;;;2.00;2.00;;;;;18.07;61.17;100849.88;5053642;28;45521;-69
2021/06/29 04:20:09;;;;;;;;;1.00;1.00;;;;;18.04;61.46;100841.16;5053956;28;45469;-69
2021/06/29 04:22:35;;;;;;;;;1.75;1.75;;;;;18.04;61.43;100838.53;5054181;28;45439;-70
2021/06/29 04:25:01;;;;;;;;;3.00;2.00;;;;;18.04;61.13;100841.16;5053399;28;45419;-70
2021/06/29 04:27:26;;;;;;;;;4.00;3.00;;;;;18.06;61.21;100841.06;5054822;28;45490;-70
2021/06/29 04:29:52;;;;;;;;;3.00;3.00;;;;;18.09;61.01;100838.28;5053469;28;47004;-70
2021/06/29 04:32:19;;;;;;;;;1.00;1.00;;;;;18.13;61.28;100834.53;5053143;28;45627;-70
2021/06/29 04:34:44;;;;;;;;;3.00;3.00;;;;;18.16;61.33;100830.88;5053657;28;45469;-70
2021/06/29 04:37:09;;;;;;;;;1.75;1.75;;;;;18.17;61.07;100835.25;5053704;28;45460;-70
2021/06/29 04:39:35;;;;;;;;;2.00;2.00;;;;;18.20;60.94;100832.44;5053812;28;45976;-69
2021/06/29 04:42:01;;;;;;;;;2.50;2.50;;;;;18.17;60.86;100841.41;5053801;28;45489;-70
2021/06/29 04:44:26;;;;;;;;;2.00;1.50;;;;;18.14;60.60;100838.91;5053301;28;45528;-70
2021/06/29 04:46:52;;;;;;;;;2.50;2.50;;;;;18.13;60.79;100829.25;5051979;28;45415;-69
2021/06/29 04:49:21;;;;;;;;;2.00;2.00;;;;;18.15;60.69;100834.47;5053086;28;45626;-70
2021/06/29 04:51:47;;;;;;;;;3.50;2.00;;;;;18.16;60.89;100833.53;5053033;28;45246;-70
2021/06/29 04:54:12;;;;;;;;;2.25;2.25;;;;;18.16;60.87;100829.09;5053670;28;45395;-70
2021/06/29 04:56:37;;;;;;;;;16.75;15.50;;;;;18.18;61.12;100821.91;5052747;28;45296;-70
2021/06/29 04:59:03;;;;;;;;;3.00;2.00;;;;;18.23;60.73;100817.25;5051272;28;46340;-70
2021/06/29 05:01:30;;;;;;;;;4.75;3.50;;;;;18.30;60.93;100820.44;5047528;28;47154;-70
2021/06/29 05:03:55;;;;;;;;;5.25;3.75;;;;;18.35;60.50;100821.09;5051796;28;45576;-71
2021/06/29 05:06:20;;;;;;;;;1.00;1.00;;;;;18.40;60.63;100824.34;5053788;28;45442;-70
2021/06/29 05:08:46;;;;;;;;;3.00;3.00;;;;;18.45;60.19;100827.63;5056324;28;46122;-71
2021/06/29 05:11:12;;;;;;;;;3.25;3.25;;;;;18.53;60.09;100829.84;5056070;28;45430;-70
2021/06/29 05:13:37;;;;;;;;;3.00;3.00;;;;;18.60;59.88;100836.56;5055932;28;46471;-70
2021/06/29 05:16:03;;;;;;;;;4.25;3.00;;;;;18.67;59.99;100832.66;5055718;28;45365;-70
2021/06/29 05:18:28;;;;;;;;;3.75;3.75;;;;;18.78;59.81;100844.50;5056593;28;47413;-70
2021/06/29 05:20:54;;;;;;;;;3.75;2.75;;;;;18.84;59.60;100838.88;5056216;28;45467;-70
2021/06/29 05:23:21;;;;;;;;;2.50;2.00;;;;;18.86;59.59;100856.44;5056124;28;45807;-70
2021/06/29 05:25:46;;;;;;;;;3.00;2.00;;;;;18.86;59.64;100843.19;5055649;28;45540;-71
2021/06/29 05:28:12;;;;;;;;;3.50;2.50;;;;;18.87;59.16;100847.53;5055651;28;47271;-72
2021/06/29 05:30:37;;;;;;;;;3.50;3.50;;;;;18.93;59.53;100845.50;5055915;28;45224;-72
2021/06/29 05:33:03;;;;;;;;;4.50;3.25;;;;;19.00;59.68;100853.06;5055475;28;45490;-69
2021/06/29 05:35:28;;;;;;;;;4.25;3.25;;;;;19.09;59.11;100851.69;5054907;28;45228;-70
2021/06/29 05:37:54;;;;;;;;;5.75;3.75;;;;;19.15;58.95;100861.13;5055048;28;46158;-69
2021/06/29 05:40:19;;;;;;;;;3.00;3.00;;;;;19.21;58.93;100863.44;5055585;28;45504;-70
2021/06/29 05:42:45;;;;;;;;;2.75;2.75;;;;;19.26;58.32;100861.41;5055323;28;45323;-70
2021/06/29 05:45:13;;;;;;;;;1.00;1.00;;;;;19.33;58.09;100861.91;5056160;28;45483;-69
2021/06/29 05:47:39;;;;;;;;;3.50;3.00;;;;;19.40;57.89;100863.28;5054915;28;47000;-70
2021/06/29 05:50:06;;;;;;;;;3.25;3.25;;;;;19.45;57.88;100855.91;5054916;28;46950;-69
2021/06/29 05:52:32;;;;;;;;;2.75;2.75;;;;;19.49;57.78;100873.41;5053125;28;45284;-70
2021/06/29 05:54:57;;;;;;;;;2.75;2.75;;;;;19.53;57.32;100867.84;5054359;28;45494;-69
2021/06/29 05:57:23;;;;;;;;;4.50;3.75;;;;;19.56;57.22;100865.97;5054931;28;47045;-71
2021/06/29 05:59:48;;;;;;;;;2.00;2.00;;;;;19.56;57.20;100869.47;5054631;28;45425;-69
2021/06/29 06:02:14;;;;;;;;;3.00;3.00;;;;;19.57;57.36;100871.19;5054636;28;45333;-69
2021/06/29 06:04:39;;;;;;;;;3.50;3.00;;;;;19.61;57.15;100872.72;5054651;28;45402;-68
2021/06/29 06:07:05;;;;;;;;;3.00;2.75;;;;;19.63;56.61;100868.19;5054719;28;45312;-68
2021/06/29 06:09:30;;;;;;;;;2.25;2.25;;;;;19.66;56.66;100876.00;5055105;28;45331;-69
2021/06/29 06:11:56;;;;;;;;;3.00;3.00;;;;;19.68;56.49;100876.78;5054505;28;45411;-69
2021/06/29 06:14:21;;;;;;;;;3.25;3.00;;;;;19.71;56.51;100879.28;5054313;28;45542;-68
2021/06/29 06:16:47;;;;;;;;;3.00;3.00;;;;;19.72;56.22;100886.28;5054235;28;45387;-69
2021/06/29 06:19:12;;;;;;;;;4.00;4.00;;;;;19.75;56.10;100892.38;5053380;28;45438;-70
2021/06/29 06:21:37;;;;;;;;;9.25;6.50;;;;;19.75;56.71;100887.91;5054460;28;45343;-69
2021/06/29 06:24:03;;;;;;;;;5.00;5.00;;;;;19.75;56.04;100885.25;5054538;28;45355;-70
2021/06/29 06:26:29;;;;;;;;;6.00;4.25;;;;;19.77;56.44;100891.34;5053432;28;47271;-70
2021/06/29 06:28:54;;;;;;;;;3.00;3.00;;;;;19.81;55.65;100895.56;5053998;28;45413;-70
2021/06/29 06:31:20;;;;;;;;;4.00;4.00;;;;;19.82;56.06;100888.44;5053687;28;45447;-70
2021/06/29 06:33:45;;;;;;;;;4.00;4.00;;;;;19.83;56.34;100888.34;5054583;28;45473;-70
2021/06/29 06:36:11;;;;;;;;;5.50;5.00;;;;;19.81;56.09;100892.91;5054264;28;45904;-69
2021/06/29 06:38:37;;;;;;;;;9.00;8.00;;;;;19.84;56.64;100891.88;5053494;28;45350;-69
2021/06/29 06:41:02;;;;;;;;;5.25;5.25;;;;;19.78;56.42;100885.06;5052185;28;45382;-70
2021/06/29 06:43:28;;;;;;;;;3.75;3.75;;;;;19.73;57.36;100887.13;5053071;28;45318;-68
2021/06/29 06:45:53;;;;;;;;;11.00;9.75;;;;;19.73;57.23;100887.13;5053728;28;46119;-69
2021/06/29 06:48:19;;;;;;;;;4.00;4.00;;;;;19.78;57.46;100886.88;5053498;28;45301;-70
2021/06/29 06:50:44;;;;;;;;;3.50;3.00;;;;;19.80;57.21;100874.38;5053123;28;45484;-69
2021/06/29 06:53:09;;;;;;;;;4.25;3.25;;;;;19.80;57.84;100879.69;5053158;27;45519;-68
2021/06/29 06:55:35;;;;;;;;;5.25;3.00;;;;;19.82;57.33;100881.31;5052875;28;46012;-69
2021/06/29 06:58:00;;;;;;;;;3.25;3.25;;;;;19.85;57.29;100888.25;5054323;28;45288;-69
2021/06/29 07:00:26;;;;;;;;;6.75;4.75;;;;;19.88;57.73;100886.28;5054567;28;45506;-69
2021/06/29 07:02:53;;;;;;;;;4.50;4.50;;;;;19.94;57.87;100883.28;5053121;28;45293;-69
2021/06/29 07:05:19;;;;;;;;;6.25;6.25;;;;;19.97;57.40;100890.22;5053388;28;47094;-70
2021/06/29 07:07:44;;;;;;;;;5.75;5.00;;;;;19.94;57.41;100891.25;5053429;28;45561;-70
2021/06/29 07:10:10;;;;;;;;;8.50;7.00;;;;;19.90;57.73;100896.81;5053576;28;45505;-70
2021/06/29 07:12:36;;;;;;;;;6.75;6.75;;;;;19.85;57.74;100897.06;5054389;28;45394;-69
2021/06/29 07:15:03;;;;;;;;;4.00;4.00;;;;;19.83;58.33;100896.31;5053230;28;46112;-68
2021/06/29 07:17:28;;;;;;;;;5.00;3.75;;;;;19.79;58.28;100891.28;5052694;28;45353;-68
2021/06/29 07:19:53;;;;;;;;;4.00;4.00;;;;;19.76;57.75;100892.31;5054060;28;45233;-68
2021/06/29 07:22:19;;;;;;;;;6.25;6.00;;;;;19.75;58.28;100895.88;5053850;28;45461;-69
2021/06/29 07:24:45;;;;;;;;;5.75;5.75;;;;;19.74;58.10;100899.50;5052557;28;46093;-69
2021/06/29 07:27:11;;;;;;;;;4.00;3.75;;;;;19.70;58.57;100903.25;5053073;28;45660;-69
2021/06/29 07:29:36;;;;;;;;;8.00;5.00;;;;;19.66;58.21;100901.66;5053272;28;45366;-69
2021/06/29 07:32:03;;;;;;;;;8.50;8.25;;;;;19.63;58.17;100909.81;5054014;28;45428;-69
2021/06/29 07:34:28;;;;;;;;;6.00;6.00;;;;;19.60;58.37;100908.19;5053982;28;46077;-69
2021/06/29 07:36:55;;;;;;;;;8.75;7.00;;;;;19.59;58.79;100905.59;5053600;28;45368;-69
2021/06/29 07:39:20;;;;;;;;;5.25;5.25;;;;;19.58;58.53;100909.22;5052997;28;45360;-69
2021/06/29 07:41:45;;;;;;;;;6.75;6.75;;;;;19.58;59.03;100909.22;5053582;28;45591;-69
2021/06/29 07:44:11;;;;;;;;;6.00;4.25;;;;;19.52;59.08;100911.28;5052903;28;45429;-68
2021/06/29 07:46:36;;;;;;;;;5.75;4.25;;;;;19.48;59.32;100904.41;5052722;28;45547;-69
2021/06/29 07:49:02;;;;;;;;;7.50;6.50;;;;;19.42;59.52;100904.72;5052635;28;45413;-69
2021/06/29 07:51:28;;;;;;;;;5.50;2.50;;;;;19.42;58.44;100904.72;5048512;28;45455;-68
2021/06/29 07:53:53;;;;;;;;;4.50;4.00;;;;;19.39;58.05;100902.25;5033433;28;46881;-70
2021/06/29 07:56:18;;;;;;;;;4.00;4.00;;;;;19.43;60.63;100903.81;5052469;28;45411;-69
2021/06/29 07:58:46;;;;;;;;;5.00;4.25;;;;;19.53;58.01;100907.66;5053014;28;45419;-69
2021/06/29 08:01:15;;;;;;;;;7.75;4.25;;;;;19.65;58.50;100898.16;5053010;28;45481;-69
2021/06/29 08:03:41;;;;;;;;;6.50;4.25;;;;;19.78;58.07;100905.47;5053596;28;46286;-69
2021/06/29 08:06:06;;;;;;;;;3.75;2.00;;;;;19.92;58.27;100903.75;5053772;28;45314;-69
2021/06/29 08:08:31;;;;;;;;;6.00;4.00;;;;;20.07;57.23;100910.03;5051275;28;45394;-69
2021/06/29 08:11:02;;;;;;;;;3.75;3.00;;;;;20.26;57.31;100908.94;5052383;28;45267;-69
2021/06/29 08:13:28;;;;;;;;;6.00;4.00;;;;;20.40;55.46;100914.31;5052420;28;47279;-68
2021/06/29 08:15:54;;;;;;;;;4.00;4.00;;;;;20.51;55.54;100911.88;5052374;28;45480;-68
2021/06/29 08:18:19;;;;;;;;;1.25;1.25;;;;;20.53;53.76;100910.00;5052929;28;45371;-70
2021/06/29 08:20:45;;;;;;;;;1.00;1.00;;;;;20.51;53.80;100911.03;5052068;28;45500;-69
2021/06/29 08:23:11;;;;;;;;;3.00;3.00;;;;;20.55;53.95;100916.09;5050904;28;45516;-69
2021/06/29 08:25:38;;;;;;;;;4.50;2.50;;;;;20.48;52.04;100920.03;5051757;28;45429;-70
2021/06/29 08:28:03;;;;;;;;;3.00;2.00;;;;;20.39;53.17;100917.91;5052364;28;45483;-69
2021/06/29 08:30:29;;;;;;;;;2.00;2.00;;;;;20.48;53.59;100922.72;5053668;28;45406;-69
2021/06/29 08:32:54;;;;;;;;;2.00;2.00;;;;;20.60;53.39;100921.16;5052225;28;46061;-69
2021/06/29 08:35:20;;;;;;;;;1.50;1.50;;;;;20.64;52.53;100917.38;5052831;28;45374;-69
2021/06/29 08:37:45;;;;;;;;;1.50;1.50;;;;;20.58;52.30;100921.25;5051877;28;45461;-69
2021/06/29 08:40:12;;;;;;;;;2.00;2.00;;;;;20.55;52.05;100924.09;5052547;28;45358;-69
2021/06/29 08:42:39;;;;;;;;;3.75;2.00;;;;;20.57;52.38;100924.84;5051899;28;46191;-69
2021/06/29 08:45:10;;;;;;;;;2.75;2.00;;;;;20.66;53.10;100926.09;5052916;28;45456;-69
2021/06/29 08:47:36;;;;;;;;;4.00;4.00;;;;;20.77;53.07;100921.00;5052344;28;45416;-68
2021/06/29 08:50:05;;;;;;;;;2.00;2.00;;;;;20.79;52.98;100923.59;5051450;28;45362;-69
2021/06/29 08:52:31;;;;;;;;;4.25;4.25;;;;;20.84;52.91;100925.97;5050631;28;46086;-68
2021/06/29 08:54:58;;;;;;;;;6.00;4.00;;;;;20.91;52.93;100920.19;5052022;28;45739;-68
2021/06/29 08:57:24;;;;;;;;;2.00;2.00;;;;;21.00;52.72;100918.78;5053067;28;45501;-68
2021/06/29 08:59:49;;;;;;;;;5.75;4.00;;;;;21.05;52.96;100918.50;5052146;28;45373;-68
2021/06/29 09:02:17;;;;;;;;;5.00;5.00;;;;;21.12;53.33;100918.00;5051755;28;45382;-68
2021/06/29 09:04:42;;;;;;;;;3.25;3.00;;;;;21.29;53.29;100914.31;5052029;28;45347;-68
2021/06/29 09:07:22;;;;;;;;;5.25;3.75;;;;;21.38;52.69;100919.06;5052393;28;45512;-68
2021/06/29 09:09:54;;;;;;;;;4.00;4.00;;;;;21.43;52.55;100924.13;5052918;28;45455;-68
2021/06/29 09:12:45;;;;;;;;;5.25;5.00;;;;;21.38;52.41;100918.19;5052546;28;46071;-69
2021/06/29 09:15:30;;;;;;;;;2.00;2.00;;;;;21.42;52.20;100912.59;5052059;28;45286;-68
2021/06/29 09:18:07;;;;;;;;;3.25;3.25;;;;;21.52;51.96;100920.00;5052373;28;45690;-69
2021/06/29 09:20:36;;;;;;;;;5.00;2.75;;;;;21.61;52.19;100914.09;5051252;28;49819;-68
2021/06/29 09:23:18;;;;;;;;;5.25;4.25;;;;;21.76;51.68;100918.47;5051392;28;47011;-69
2021/06/29 09:26:08;;;;;;;;;3.50;3.50;;;;;21.83;51.30;100916.25;5051722;28;45579;-69
2021/06/29 09:28:36;;;;;;;;;8.75;6.00;;;;;21.94;51.84;100918.22;5028638;28;45764;-68
2021/06/29 09:31:13;;;;;;;;;11.00;6.67;;;;;22.16;51.23;100915.00;5013441;28;45348;-68
2021/06/29 09:33:41;;;;;;;;;3.50;3.50;;;;;22.36;50.87;100916.41;5029120;28;45686;-69
2021/06/29 09:36:11;;;;;;;;;3.75;3.75;;;;;22.47;49.46;100917.34;5028877;28;45344;-70
2021/06/29 09:38:39;;;;;;;;;3.00;3.00;;;;;22.44;49.84;100914.06;5028553;28;45438;-67
2021/06/29 09:41:06;;;;;;;;;5.00;4.00;;;;;22.53;49.47;100912.59;5028865;28;45650;-70
2021/06/29 09:43:36;;;;;;;;;3.00;3.00;;;;;22.55;49.18;100915.97;5028927;28;46996;-70
2021/06/29 09:46:03;;;;;;;;;2.00;2.00;;;;;22.52;48.61;100916.19;5028942;28;45477;-68
2021/06/29 09:48:35;;;;;;;;;5.50;2.50;;;;;22.53;48.96;100909.94;5028900;28;45402;-70
2021/06/29 09:51:10;;;;;;;;;2.33;2.33;;;;;22.61;48.39;100913.75;5028365;28;45703;-70
2021/06/29 09:53:41;;;;;;;;;4.75;4.00;;;;;22.84;48.87;100906.00;5030429;28;47112;-70
2021/06/29 09:56:15;;;;;;;;;6.75;4.00;;;;;23.13;47.97;100912.03;5031874;28;45586;-68
2021/06/29 09:58:51;;;;;;;;;4.00;3.00;;;;;23.30;44.44;100905.47;5032766;28;45352;-69
2021/06/29 10:01:20;;;;;;;;;4.00;3.67;;;;;23.42;44.82;100903.75;5032357;28;45484;-69
2021/06/29 10:03:50;;;;;;;;;3.75;3.00;;;;;23.59;45.24;100908.72;5031543;28;46381;-69
2021/06/29 10:06:25;;;;;;;;;3.67;3.00;;;;;23.88;44.52;100905.78;5046238;28;45402;-67
2021/06/29 10:08:52;;;;;;;;;1.00;1.00;;;;;24.14;43.63;100906.53;5052858;28;45534;-68
2021/06/29 10:11:27;;;;;;;;;2.75;1.00;;;;;24.30;43.60;100908.91;5053111;28;45382;-68
2021/06/29 10:13:57;;;;;;;;;1.00;1.00;;;;;24.50;42.89;100918.13;5054620;28;45290;-68
2021/06/29 10:16:26;;;;;;;;;1.00;1.00;;;;;24.64;42.13;100912.59;5054992;28;45346;-68
2021/06/29 10:19:15;;;;;;;;;1.33;1.33;;;;;24.80;41.61;100913.09;5054046;28;45320;-68
2021/06/29 10:21:54;;;;;;;;;1.33;1.33;;;;;25.01;41.15;100910.59;5050256;28;45597;-69
2021/06/29 10:24:24;;;;;;;;;1.00;1.00;;;;;25.11;39.83;100900.00;5052626;28;46237;-70
2021/06/29 10:26:51;;;;;;;;;1.00;1.00;;;;;25.10;39.96;100906.34;5053743;28;45492;-69
2021/06/29 10:29:18;;;;;;;;;1.00;1.00;;;;;25.29;40.23;100900.41;5054423;28;45561;-70
2021/06/29 10:31:48;;;;;;;;;1.33;1.33;;;;;25.50;39.41;100902.34;5053436;28;45567;-70
2021/06/29 10:34:15;;;;;;;;;0.67;0.67;;;;;25.70;39.17;100898.91;5053133;28;46359;-69
2021/06/29 10:36:44;;;;;;;;;2.33;1.00;;;;;25.95;38.92;100899.59;5053769;28;45303;-69
2021/06/29 10:39:14;;;;;;;;;1.00;1.00;;;;;26.08;37.16;100896.75;5055027;28;45387;-69
2021/06/29 10:41:42;;;;;;;;;0.00;0.00;;;;;26.21;36.75;100890.22;5053971;28;45633;-68
2021/06/29 10:44:10;;;;;;;;;0.67;0.67;;;;;26.39;37.33;100897.72;5053011;28;45720;-69
2021/06/29 10:46:41;;;;;;;;;1.00;1.00;;;;;26.50;37.26;100894.97;5053980;28;45380;-70
2021/06/29 10:49:26;;;;;;;;;2.00;2.00;;;;;26.69;37.03;100897.81;5053459;28;45579;-70
2021/06/29 10:51:52;;;;;;;;;3.00;3.00;;;;;26.75;37.17;100892.91;5053515;28;45554;-68
2021/06/29 10:54:36;;;;;;;;;1.00;1.00;;;;;26.73;37.15;100895.72;5053516;28;47002;-70
2021/06/29 10:57:11;;;;;;;;;1.00;1.00;;;;;26.58;36.36;100895.22;5053307;28;45417;-70
2021/06/29 10:59:41;;;;;;;;;0.00;0.00;;;;;26.30;36.41;100885.09;5053813;28;45386;-69
2021/06/29 11:02:12;;;;;;;;;2.67;2.67;;;;;26.13;36.36;100889.19;5053372;28;45281;-69
2021/06/29 11:04:47;;;;;;;;;1.00;1.00;;;;;26.07;36.77;100885.16;5052885;28;46243;-70
2021/06/29 11:07:27;;;;;;;;;0.00;0.00;;;;;26.11;36.51;100883.09;5052427;28;45447;-70
2021/06/29 11:09:54;;;;;;;;;2.00;2.00;;;;;26.10;36.07;100890.28;5053902;28;45517;-70
2021/06/29 11:12:23;;;;;;;;;5.33;3.00;;;;;26.17;36.80;100898.66;5054641;28;45364;-70
2021/06/29 11:14:51;;;;;;;;;5.67;4.33;;;;;26.31;36.74;100898.34;5053615;28;47192;-70
2021/06/29 11:17:17;;;;;;;;;3.00;3.00;;;;;26.47;36.65;100893.41;5053330;28;45485;-70
2021/06/29 11:20:08;;;;;;;;;2.67;1.67;;;;;26.77;35.43;100893.63;5054223;28;45454;-69
2021/06/29 11:22:49;;;;;;;;;9.00;6.00;;;;;26.98;34.72;100897.16;5053673;28;45466;-71
2021/06/29 11:25:29;;;;;;;;;1.00;1.00;;;;;27.08;34.76;100892.66;5039489;28;46218;-70